TLINEU Weather Reports


Display with metric or nautical units.
time (UTC)temp
F
wind
direction
speed
MPH
gust
MPH
rain 1hr
in
rain 24hr
in
rain mn
in
humidity
%
barometer
mb
20210729075512 61 87 12.0 18.0 0.00 0.00 0.00 39 1023.3
20210729074707 61 87 12.0 18.0 0.00 0.00 0.00 39 1023.3
20210729072720 61 87 12.0 18.0 0.00 0.00 0.00 39 1023.3
20210729070116 61 87 12.0 22.0 0.00 0.00 0.00 39 1023.1
20210729065221 61 87 12.0 22.0 0.00 0.00 0.00 39 1023.1
20210729063429 61 87 12.0 22.0 0.00 0.00 0.00 39 1023.1
20210729060834 61 72 10.0 20.0 0.00 0.00 0.00 35 1023.1
20210729055914 61 72 10.0 20.0 0.00 0.00 0.00 35 1023.1
20210729054127 61 72 10.0 20.0 0.00 0.00 0.00 35 1023.1
20210729051323 63 34 10.0 16.0 0.00 0.00 0.00 39 1022.8
20210729050519 63 34 10.0 16.0 0.00 0.00 0.00 39 1022.8
20210729044554 63 34 10.0 16.0 0.00 0.00 0.00 39 1022.8
20210729041903 63 34 10.0 16.0 0.00 0.00 0.00 39 1022.8
20210729041230 63 34 10.0 16.0 0.00 0.00 0.00 39 1022.8
20210729035246 66 86 10.0 17.0 0.00 0.00 0.00 41 1022.7
20210729032617 66 86 10.0 17.0 0.00 0.00 0.00 41 1022.7
20210729031955 66 86 10.0 17.0 0.00 0.00 0.00 41 1022.7
20210729025954 67 85 10.0 20.0 0.00 0.00 0.00 47 1022.7
20210729023419 67 85 10.0 20.0 0.00 0.00 0.00 47 1022.7
20210729022704 67 85 10.0 20.0 0.00 0.00 0.00 47 1022.7
20210729020905 69 81 12.0 21.0 0.00 0.00 0.00 46 1022.7
20210729014305 69 81 12.0 21.0 0.00 0.00 0.00 46 1022.7
20210729013218 69 81 12.0 21.0 0.00 0.00 0.00 46 1022.7
20210729011524 69 81 12.0 21.0 0.00 0.00 0.00 46 1022.7
20210729004718 70 16 10.0 20.0 0.00 0.00 0.00 42 1022.9
20210729003904 70 16 10.0 20.0 0.00 0.00 0.00 42 1022.9
20210729002000 70 16 10.0 20.0 0.00 0.00 0.00 42 1022.9
20210728235241 70 2 8.0 19.0 0.00 0.00 0.00 37 1023.3
20210728234614 70 2 8.0 19.0 0.00 0.00 0.00 37 1023.3
20210728232427 70 2 8.0 19.0 0.00 0.00 0.00 37 1023.3
20210728225824 71 17 8.0 22.0 0.00 0.00 0.00 34 1023.5
20210728225245 71 17 8.0 22.0 0.00 0.00 0.00 34 1023.5
20210728223213 71 17 8.0 22.0 0.00 0.00 0.00 34 1023.5
20210728220651 72 35 9.0 23.0 0.00 0.00 0.00 29 1023.6
20210728215929 72 35 9.0 23.0 0.00 0.00 0.00 29 1023.6
20210728213849 72 35 9.0 23.0 0.00 0.00 0.00 29 1023.6
20210728211104 72 39 6.0 22.0 0.00 0.00 0.00 27 1023.7
20210728210648 72 39 6.0 22.0 0.00 0.00 0.00 27 1023.7
20210728204434 72 39 6.0 22.0 0.00 0.00 0.00 27 1023.7
20210728201704 72 39 6.0 22.0 0.00 0.00 0.00 27 1023.7
20210728201129 72 39 6.0 22.0 0.00 0.00 0.00 27 1023.7
20210728194958 70 37 6.0 22.0 0.00 0.00 0.00 26 1023.9
20210728192201 70 37 6.0 22.0 0.00 0.00 0.00 26 1023.9
20210728191727 70 37 6.0 22.0 0.00 0.00 0.00 26 1023.9
20210728185521 70 37 3.0 18.0 0.00 0.00 0.00 26 1023.6
20210728182744 70 37 3.0 18.0 0.00 0.00 0.00 26 1023.6
20210728182244 70 37 3.0 18.0 0.00 0.00 0.00 26 1023.6
20210728180047 69 32 2.0 12.0 0.00 0.00 0.00 29 1023.6
20210728173344 69 32 2.0 12.0 0.00 0.00 0.00 29 1023.6
20210728172917 69 32 2.0 12.0 0.00 0.00 0.00 29 1023.6
20210728170710 64 19 1.0 11.0 0.00 0.00 0.00 19 1023.4
20210728164104 64 19 1.0 11.0 0.00 0.00 0.00 19 1023.4
20210728163539 64 19 1.0 11.0 0.00 0.00 0.00 19 1023.4
20210728161318 56 13 1.0 10.0 0.00 0.00 0.00 24 1023.3
20210728154649 56 13 1.0 10.0 0.00 0.00 0.00 24 1023.3
20210728154049 56 13 1.0 10.0 0.00 0.00 0.00 24 1023.3
20210728151923 56 13 1.0 10.0 0.00 0.00 0.00 24 1023.3
20210728145137 54 17 3.0 12.0 0.00 0.00 0.00 27 1023.0
20210728144808 54 17 3.0 12.0 0.00 0.00 0.00 27 1023.0
20210728142518 54 17 3.0 12.0 0.00 0.00 0.00 27 1023.0
20210728135904 53 3 1.0 10.0 0.00 0.00 0.00 26 1023.1
20210728135306 53 3 1.0 10.0 0.00 0.00 0.00 26 1023.1
20210728133233 53 3 1.0 10.0 0.00 0.00 0.00 26 1023.1
20210728130536 53 0 0.0 3.0 0.00 0.00 0.00 23 1022.8
20210728125850 53 0 0.0 3.0 0.00 0.00 0.00 23 1022.8
20210728123922 53 0 0.0 3.0 0.00 0.00 0.00 23 1022.8
20210728121242 54 360 4.0 11.0 0.00 0.00 0.00 22 1022.7
20210728120509 54 360 4.0 11.0 0.00 0.00 0.00 22 1022.7
20210728114604 54 360 4.0 11.0 0.00 0.00 0.00 22 1022.7
20210728111904 54 360 4.0 11.0 0.00 0.00 0.00 22 1022.7
20210728110959 54 360 4.0 11.0 0.00 0.00 0.00 22 1022.7
20210728105204 53 360 10.0 13.0 0.00 0.00 0.00 23 1022.8
20210728102334 53 360 10.0 13.0 0.00 0.00 0.00 23 1022.8
20210728101605 53 360 10.0 13.0 0.00 0.00 0.00 23 1022.8
20210728095644 52 360 12.0 15.0 0.00 0.00 0.00 38 1023.0
20210728092954 52 360 12.0 15.0 0.00 0.00 0.00 38 1023.0
20210728092154 52 360 12.0 15.0 0.00 0.00 0.00 38 1023.0
20210728090323 52 0 13.0 17.0 0.00 0.00 0.00 40 1023.0
20210728083634 52 0 13.0 17.0 0.00 0.00 0.00 40 1023.0
20210728082756 52 0 13.0 17.0 0.00 0.00 0.00 40 1023.0